createdAt,value
2023-05-08T00:00:08.392Z,8.68
2023-05-08T00:02:35.537Z,8.67
2023-05-08T00:05:03.447Z,8.67
2023-05-08T00:07:31.284Z,8.65
2023-05-08T00:09:58.430Z,8.64
2023-05-08T00:12:25.492Z,8.63
2023-05-08T00:14:52.515Z,8.61
2023-05-08T00:17:19.573Z,8.60
2023-05-08T00:19:46.622Z,8.58
2023-05-08T00:22:13.565Z,8.57
2023-05-08T00:24:40.513Z,8.56
2023-05-08T00:27:08.466Z,8.54
2023-05-08T00:29:35.528Z,8.54
2023-05-08T00:32:02.901Z,8.52
2023-05-08T00:34:29.829Z,8.53
2023-05-08T00:36:57.710Z,8.52
2023-05-08T00:39:24.754Z,8.52
2023-05-08T00:41:51.709Z,8.51
2023-05-08T00:44:18.735Z,8.51
2023-05-08T00:46:45.913Z,8.50
2023-05-08T00:49:14.778Z,8.48
2023-05-08T00:51:44.443Z,8.47
2023-05-08T00:54:12.470Z,8.45
2023-05-08T00:56:39.674Z,8.43
2023-05-08T00:59:09.929Z,8.43
2023-05-08T01:01:38.014Z,8.42
2023-05-08T01:04:05.326Z,8.41
2023-05-08T01:06:34.623Z,8.39
2023-05-08T01:09:01.777Z,8.38
2023-05-08T01:11:48.180Z,8.37
2023-05-08T01:14:22.897Z,8.35
2023-05-08T01:16:56.231Z,8.32
2023-05-08T01:19:35.457Z,8.30
2023-05-08T01:22:20.540Z,8.29
2023-05-08T01:24:50.830Z,8.26
2023-05-08T01:27:42.281Z,8.24
2023-05-08T01:30:41.568Z,8.20
2023-05-08T01:33:11.749Z,8.16
2023-05-08T01:35:50.298Z,8.13
2023-05-08T01:38:25.900Z,8.10
2023-05-08T01:40:55.067Z,8.08
2023-05-08T01:43:26.184Z,8.05
2023-05-08T01:45:53.438Z,8.03
2023-05-08T01:48:24.778Z,8.02
2023-05-08T01:51:04.051Z,7.99
2023-05-08T01:53:37.421Z,7.95
2023-05-08T01:56:08.972Z,7.92
2023-05-08T01:58:36.017Z,7.89
2023-05-08T02:01:03.180Z,7.88
2023-05-08T02:03:32.026Z,7.85
2023-05-08T02:05:59.620Z,7.83
2023-05-08T02:08:27.286Z,7.84
2023-05-08T02:10:54.682Z,7.83
2023-05-08T02:13:22.285Z,7.81
2023-05-08T02:15:49.979Z,7.80
2023-05-08T02:18:22.441Z,7.80
2023-05-08T02:20:51.128Z,7.79
2023-05-08T02:23:18.893Z,7.76
2023-05-08T02:25:46.141Z,7.74
2023-05-08T02:28:13.188Z,7.73
2023-05-08T02:30:40.542Z,7.73
2023-05-08T02:33:08.996Z,7.71
2023-05-08T02:36:45.800Z,7.73
2023-05-08T02:39:14.097Z,7.69
2023-05-08T02:41:41.275Z,7.68
2023-05-08T02:44:09.002Z,7.67
2023-05-08T02:46:53.687Z,7.67
2023-05-08T02:49:32.490Z,7.66
2023-05-08T02:52:11.819Z,7.66
2023-05-08T02:54:44.590Z,7.66
2023-05-08T02:57:22.403Z,7.66
2023-05-08T03:00:01.784Z,7.66
2023-05-08T03:02:38.315Z,7.67
2023-05-08T03:05:15.149Z,7.68
2023-05-08T03:07:42.132Z,7.67
2023-05-08T03:10:13.137Z,7.68
2023-05-08T03:12:42.752Z,7.70
2023-05-08T03:15:42.221Z,7.71
2023-05-08T03:18:12.224Z,7.74
2023-05-08T03:20:40.638Z,7.75
2023-05-08T03:23:08.936Z,7.77
2023-05-08T03:25:36.113Z,7.79
2023-05-08T03:28:04.876Z,7.82
2023-05-08T03:30:33.700Z,7.82
2023-05-08T03:33:07.811Z,7.82
2023-05-08T03:35:38.820Z,7.81
2023-05-08T03:38:07.223Z,7.81
2023-05-08T03:40:37.133Z,7.80
2023-05-08T03:43:07.017Z,7.79
2023-05-08T03:45:39.021Z,7.79
2023-05-08T03:48:07.237Z,7.77
2023-05-08T03:50:35.967Z,7.77
2023-05-08T03:53:04.056Z,7.77
2023-05-08T03:55:31.927Z,7.76
2023-05-08T03:58:18.689Z,7.78
2023-05-08T04:01:19.718Z,7.79
2023-05-08T04:04:08.474Z,7.82
2023-05-08T04:06:51.678Z,7.83
2023-05-08T04:09:39.519Z,7.86
2023-05-08T04:12:22.528Z,7.91
2023-05-08T04:14:56.931Z,7.99
2023-05-08T04:17:40.140Z,8.08
2023-05-08T04:20:10.513Z,8.16
2023-05-08T04:22:39.086Z,8.21
2023-05-08T04:25:07.065Z,8.25
2023-05-08T04:27:35.198Z,8.31
2023-05-08T04:30:02.380Z,8.38
2023-05-08T04:32:30.484Z,8.43
2023-05-08T04:34:58.861Z,8.45
2023-05-08T04:37:27.091Z,8.46
2023-05-08T04:39:54.681Z,8.48
2023-05-08T04:42:22.132Z,8.48
2023-05-08T04:44:49.485Z,8.49
2023-05-08T04:47:16.546Z,8.50
2023-05-08T04:49:48.086Z,8.51
2023-05-08T04:52:15.139Z,8.52
2023-05-08T04:54:42.182Z,8.52
2023-05-08T04:57:09.951Z,8.54
2023-05-08T04:59:37.620Z,8.57
2023-05-08T05:02:08.439Z,8.59
2023-05-08T05:04:36.858Z,8.59
2023-05-08T05:07:04.285Z,8.61
2023-05-08T05:09:31.849Z,8.62
2023-05-08T05:11:58.994Z,8.63
2023-05-08T05:14:26.338Z,8.61
2023-05-08T05:16:53.688Z,8.63
2023-05-08T05:19:21.354Z,8.66
2023-05-08T05:21:48.407Z,8.68
2023-05-08T05:24:15.756Z,8.70
2023-05-08T05:26:42.913Z,8.74
2023-05-08T05:29:10.268Z,8.76
2023-05-08T05:31:37.577Z,8.77
2023-05-08T05:34:04.971Z,8.80
2023-05-08T05:36:32.118Z,8.88
2023-05-08T05:38:59.900Z,8.95
2023-05-08T05:41:33.205Z,9.03
2023-05-08T05:44:04.254Z,9.11
2023-05-08T05:46:39.203Z,9.21
2023-05-08T05:49:06.713Z,9.34
2023-05-08T05:51:34.474Z,9.44
2023-05-08T05:54:01.525Z,9.55
2023-05-08T05:56:28.794Z,9.65
2023-05-08T05:58:56.033Z,9.77
2023-05-08T06:01:25.128Z,9.87
2023-05-08T06:03:52.356Z,9.94
2023-05-08T06:06:19.544Z,10.02
2023-05-08T06:08:48.828Z,10.10
2023-05-08T06:11:15.784Z,10.16
2023-05-08T06:13:47.237Z,10.22
2023-05-08T06:16:33.687Z,10.23
2023-05-08T06:19:00.888Z,10.24
2023-05-08T06:21:28.956Z,10.29
2023-05-08T06:23:56.109Z,10.35
2023-05-08T06:26:23.593Z,10.43
2023-05-08T06:28:50.815Z,10.47
2023-05-08T06:31:18.091Z,10.50
2023-05-08T06:33:45.222Z,10.53
2023-05-08T06:36:15.009Z,10.62
2023-05-08T06:38:42.246Z,10.71
2023-05-08T06:41:09.443Z,10.79
2023-05-08T06:43:36.584Z,10.87
2023-05-08T06:46:04.075Z,10.99
2023-05-08T06:48:31.298Z,11.13
2023-05-08T06:50:59.073Z,11.23
2023-05-08T06:53:26.668Z,11.28
2023-05-08T06:55:53.874Z,11.36
2023-05-08T06:58:21.173Z,11.48
2023-05-08T07:00:48.278Z,11.60
2023-05-08T07:03:15.420Z,11.76
2023-05-08T07:05:42.587Z,11.89
2023-05-08T07:08:09.731Z,12.07
2023-05-08T07:10:37.088Z,12.22
2023-05-08T07:13:04.488Z,12.31
2023-05-08T07:15:32.413Z,12.39
2023-05-08T07:17:59.490Z,12.48
2023-05-08T07:20:40.231Z,12.63
2023-05-08T07:23:07.693Z,12.82
2023-05-08T07:25:35.246Z,13.06
2023-05-08T07:28:02.663Z,13.33
2023-05-08T07:30:29.651Z,13.59
2023-05-08T07:32:56.734Z,13.76
2023-05-08T07:35:23.953Z,13.95
2023-05-08T07:37:50.996Z,14.24
2023-05-08T07:40:18.156Z,14.52
2023-05-08T07:42:45.320Z,14.66
2023-05-08T07:45:13.374Z,14.74
2023-05-08T07:47:57.901Z,14.85
2023-05-08T07:50:25.792Z,15.04
2023-05-08T07:52:53.454Z,15.20
2023-05-08T07:55:20.723Z,15.31
2023-05-08T07:57:48.061Z,15.40
2023-05-08T08:00:15.742Z,15.36
2023-05-08T08:02:44.233Z,15.26
2023-05-08T08:05:12.204Z,15.19
2023-05-08T08:07:39.673Z,15.24
2023-05-08T08:10:07.704Z,15.39
2023-05-08T08:12:34.753Z,15.61
2023-05-08T08:15:02.006Z,15.92
2023-05-08T08:17:29.679Z,16.32
2023-05-08T08:19:57.503Z,16.68
2023-05-08T08:22:25.732Z,17.08
2023-05-08T08:24:55.230Z,17.44
2023-05-08T08:27:23.260Z,17.57
2023-05-08T08:29:52.593Z,17.52
2023-05-08T08:32:28.873Z,17.36
2023-05-08T08:34:56.623Z,17.22
2023-05-08T08:37:26.534Z,17.10
2023-05-08T08:39:54.217Z,16.96
2023-05-08T08:42:21.907Z,16.95
2023-05-08T08:44:49.848Z,16.97
2023-05-08T08:47:19.618Z,17.02
2023-05-08T08:49:49.919Z,17.25
2023-05-08T08:52:27.359Z,17.63
2023-05-08T08:54:55.856Z,18.03
2023-05-08T08:57:23.101Z,18.19
2023-05-08T08:59:52.602Z,17.93
2023-05-08T09:02:19.735Z,17.63
2023-05-08T09:04:50.321Z,17.59
2023-05-08T09:07:18.248Z,17.75
2023-05-08T09:09:45.652Z,17.96
2023-05-08T09:12:15.895Z,18.27
2023-05-08T09:14:43.086Z,18.45
2023-05-08T09:17:10.542Z,18.49
2023-05-08T09:19:45.383Z,18.46
2023-05-08T09:22:12.429Z,18.43
2023-05-08T09:24:58.775Z,18.43
2023-05-08T09:27:27.458Z,18.49
2023-05-08T09:30:10.849Z,18.55
2023-05-08T09:32:39.647Z,18.63
2023-05-08T09:35:07.592Z,18.75
2023-05-08T09:37:37.408Z,19.02
2023-05-08T09:40:17.795Z,19.44
2023-05-08T09:42:46.143Z,19.83
2023-05-08T09:45:26.747Z,20.06
2023-05-08T09:47:53.928Z,19.89
2023-05-08T09:50:21.526Z,19.84
2023-05-08T09:52:49.431Z,19.74
2023-05-08T09:55:20.426Z,19.69
2023-05-08T09:58:05.294Z,19.65
2023-05-08T10:00:33.164Z,19.58
2023-05-08T10:03:04.684Z,19.62
2023-05-08T10:05:37.836Z,19.66
2023-05-08T10:08:21.490Z,19.79
2023-05-08T10:10:48.705Z,19.92
2023-05-08T10:13:16.006Z,20.01
2023-05-08T10:15:43.974Z,20.11
2023-05-08T10:18:12.477Z,20.14
2023-05-08T10:20:44.525Z,20.03
2023-05-08T10:23:17.960Z,19.82
2023-05-08T10:25:52.778Z,19.46
2023-05-08T10:28:35.344Z,19.05
2023-05-08T10:31:13.058Z,18.63
2023-05-08T10:33:41.183Z,18.29
2023-05-08T10:36:19.741Z,18.26
2023-05-08T10:39:01.488Z,18.61
2023-05-08T10:41:29.048Z,19.15
2023-05-08T10:43:56.297Z,19.61
2023-05-08T10:46:52.428Z,19.83
2023-05-08T10:49:27.085Z,19.89
2023-05-08T10:52:23.800Z,19.78
2023-05-08T10:55:37.667Z,19.51
2023-05-08T10:58:28.829Z,19.11
2023-05-08T11:01:00.031Z,18.99
2023-05-08T11:03:31.993Z,19.08
2023-05-08T11:06:01.712Z,19.46
2023-05-08T11:08:29.994Z,19.89
2023-05-08T11:11:00.369Z,20.28
2023-05-08T11:13:40.123Z,20.52
2023-05-08T11:16:08.330Z,20.57
2023-05-08T11:18:48.445Z,20.43
2023-05-08T11:21:21.807Z,20.16
2023-05-08T11:23:56.688Z,20.04
2023-05-08T11:26:24.038Z,19.89
2023-05-08T11:28:54.772Z,19.81
2023-05-08T11:31:21.835Z,19.87
2023-05-08T11:33:49.390Z,19.86
2023-05-08T11:36:23.430Z,20.02
2023-05-08T11:39:12.906Z,20.27
2023-05-08T11:41:40.124Z,20.45
2023-05-08T11:44:20.844Z,20.57
2023-05-08T11:47:12.491Z,20.64
2023-05-08T11:49:39.761Z,20.63
2023-05-08T11:52:07.119Z,20.58
2023-05-08T11:54:34.273Z,20.79
2023-05-08T11:57:02.061Z,21.28
2023-05-08T11:59:29.188Z,21.66
2023-05-08T12:02:07.776Z,21.52
2023-05-08T12:04:46.796Z,21.21
2023-05-08T12:07:14.243Z,20.91
2023-05-08T12:09:41.341Z,20.64
2023-05-08T12:12:08.597Z,20.56
2023-05-08T12:14:35.642Z,20.61
2023-05-08T12:17:03.080Z,20.73
2023-05-08T12:19:30.143Z,20.91
2023-05-08T12:21:57.924Z,21.05
2023-05-08T12:24:26.318Z,21.33
2023-05-08T12:26:56.754Z,21.74
2023-05-08T12:29:24.330Z,22.15
2023-05-08T12:31:52.253Z,22.38
2023-05-08T12:34:19.395Z,22.40
2023-05-08T12:36:46.890Z,22.37
2023-05-08T12:39:15.578Z,22.24
2023-05-08T12:41:47.289Z,22.15
2023-05-08T12:44:22.270Z,22.03
2023-05-08T12:46:53.555Z,21.79
2023-05-08T12:49:28.898Z,21.64
2023-05-08T12:52:09.390Z,21.59
2023-05-08T12:54:37.836Z,21.50
2023-05-08T12:57:12.594Z,21.54
2023-05-08T12:59:40.374Z,21.69
2023-05-08T13:02:24.258Z,21.85
2023-05-08T13:04:56.123Z,21.93
2023-05-08T13:07:23.523Z,21.88
2023-05-08T13:10:01.278Z,21.74
2023-05-08T13:12:28.487Z,21.59
2023-05-08T13:14:55.750Z,21.45
2023-05-08T13:17:22.832Z,21.28
2023-05-08T13:19:50.030Z,21.08
2023-05-08T13:22:17.095Z,20.95
2023-05-08T13:24:44.325Z,20.93
2023-05-08T13:27:11.383Z,20.92
2023-05-08T13:29:38.420Z,20.94
2023-05-08T13:32:05.822Z,20.78
2023-05-08T13:34:33.465Z,20.56
2023-05-08T13:37:01.438Z,20.31
2023-05-08T13:39:29.071Z,20.07
2023-05-08T13:42:08.206Z,19.83
2023-05-08T13:44:35.351Z,19.55
2023-05-08T13:47:02.506Z,19.32
2023-05-08T13:49:29.652Z,19.12
2023-05-08T13:52:05.814Z,19.05
2023-05-08T13:54:32.974Z,19.10
2023-05-08T13:57:00.142Z,19.14
2023-05-08T13:59:27.982Z,18.95
2023-05-08T14:01:55.083Z,18.86
2023-05-08T14:04:22.288Z,18.75
2023-05-08T14:06:54.583Z,18.57
2023-05-08T14:09:21.808Z,18.40
2023-05-08T14:11:49.034Z,18.30
2023-05-08T14:14:19.280Z,18.18
2023-05-08T14:16:46.334Z,18.18
2023-05-08T14:19:13.480Z,18.38
2023-05-08T14:21:43.050Z,18.55
2023-05-08T14:24:10.157Z,18.57
2023-05-08T14:26:38.237Z,18.50
2023-05-08T14:29:05.679Z,18.42
2023-05-08T14:31:32.770Z,18.34
2023-05-08T14:34:00.067Z,18.15
2023-05-08T14:36:27.732Z,17.98
2023-05-08T14:38:55.088Z,17.78
2023-05-08T14:41:22.342Z,17.63
2023-05-08T14:43:50.463Z,17.58
2023-05-08T14:46:21.025Z,17.63
2023-05-08T14:48:48.309Z,17.69
2023-05-08T14:51:15.572Z,17.77
2023-05-08T14:55:34.749Z,17.84
2023-05-08T14:58:02.188Z,17.74
2023-05-08T15:00:29.245Z,17.80
2023-05-08T15:02:56.400Z,17.97
2023-05-08T15:05:23.912Z,18.30
2023-05-08T15:07:51.507Z,18.78
2023-05-08T15:10:18.471Z,19.18
2023-05-08T15:12:45.559Z,19.39
2023-05-08T15:15:13.094Z,19.42
2023-05-08T15:17:53.877Z,19.21
2023-05-08T15:20:21.698Z,19.06
2023-05-08T15:22:48.844Z,19.14
2023-05-08T15:25:16.438Z,19.40
2023-05-08T15:27:43.655Z,19.72
2023-05-08T15:30:11.429Z,20.02
2023-05-08T15:32:43.805Z,20.22
2023-05-08T15:35:11.049Z,20.42
2023-05-08T15:37:38.714Z,20.67
2023-05-08T15:40:09.342Z,20.90
2023-05-08T15:42:36.460Z,21.14
2023-05-08T15:45:04.154Z,21.35
2023-05-08T15:47:32.049Z,21.56
2023-05-08T15:49:59.275Z,21.58
2023-05-08T15:52:26.332Z,21.58
2023-05-08T15:54:53.286Z,21.63
2023-05-08T15:57:20.533Z,21.64
2023-05-08T15:59:47.529Z,21.66
2023-05-08T16:02:14.898Z,21.59
2023-05-08T16:04:42.181Z,21.31
2023-05-08T16:07:09.123Z,20.98
2023-05-08T16:09:39.056Z,20.66
2023-05-08T16:12:07.328Z,20.20
2023-05-08T16:14:37.807Z,19.69
2023-05-08T16:17:10.458Z,19.11
2023-05-08T16:19:38.927Z,18.59
2023-05-08T16:22:07.052Z,18.06
2023-05-08T16:24:34.146Z,17.62
2023-05-08T16:27:01.696Z,17.22
2023-05-08T16:29:28.859Z,16.78
2023-05-08T16:31:56.665Z,16.30
2023-05-08T16:34:44.140Z,15.86
2023-05-08T16:37:11.292Z,15.56
2023-05-08T16:39:38.334Z,15.30
2023-05-08T16:42:06.915Z,15.02
2023-05-08T16:44:34.169Z,14.78
2023-05-08T16:47:01.263Z,14.57
2023-05-08T16:49:33.591Z,14.40
2023-05-08T16:52:00.848Z,14.22
2023-05-08T16:54:27.795Z,14.01
2023-05-08T16:56:54.835Z,13.80
2023-05-08T16:59:22.088Z,13.66
2023-05-08T17:01:49.337Z,13.49
2023-05-08T17:04:16.593Z,13.29
2023-05-08T17:06:43.766Z,13.16
2023-05-08T17:09:11.072Z,13.02
2023-05-08T17:11:38.147Z,12.87
2023-05-08T17:14:05.299Z,12.77
2023-05-08T17:16:32.293Z,12.67
2023-05-08T17:19:00.004Z,12.57
2023-05-08T17:21:27.261Z,12.48
2023-05-08T17:23:54.447Z,12.39
2023-05-08T17:26:23.199Z,12.27
2023-05-08T17:28:50.246Z,12.14
2023-05-08T17:31:17.423Z,12.03
2023-05-08T17:33:44.446Z,11.91
2023-05-08T17:36:11.706Z,11.81
2023-05-08T17:38:43.981Z,11.71
2023-05-08T17:41:11.117Z,11.61
2023-05-08T17:43:38.594Z,11.52
2023-05-08T17:46:06.798Z,11.45
2023-05-08T17:48:34.633Z,11.36
2023-05-08T17:51:05.660Z,11.26
2023-05-08T17:53:32.751Z,11.18
2023-05-08T17:56:01.937Z,11.12
2023-05-08T17:58:29.060Z,11.04
2023-05-08T18:00:57.188Z,10.96
2023-05-08T18:03:24.455Z,10.88
2023-05-08T18:05:51.640Z,10.82
2023-05-08T18:08:18.581Z,10.74
2023-05-08T18:10:45.641Z,10.65
2023-05-08T18:13:13.658Z,10.57
2023-05-08T18:15:40.976Z,10.49
2023-05-08T18:18:08.396Z,10.44
2023-05-08T18:20:35.769Z,10.39
2023-05-08T18:23:02.917Z,10.36
2023-05-08T18:25:30.886Z,10.32
2023-05-08T18:27:59.269Z,10.30
2023-05-08T18:30:26.418Z,10.29
2023-05-08T18:32:53.555Z,10.28
2023-05-08T18:35:21.967Z,10.23
2023-05-08T18:37:49.093Z,10.17
2023-05-08T18:40:16.390Z,10.13
2023-05-08T18:42:43.604Z,10.10
2023-05-08T18:45:11.773Z,10.05
2023-05-08T18:47:38.871Z,10.01
2023-05-08T18:50:06.692Z,9.97
2023-05-08T18:52:34.352Z,9.92
2023-05-08T18:55:01.364Z,9.88
2023-05-08T18:57:28.448Z,9.84
2023-05-08T18:59:55.701Z,9.82
2023-05-08T19:02:24.883Z,9.78
2023-05-08T19:04:52.053Z,9.75
2023-05-08T19:07:19.100Z,9.69
2023-05-08T19:09:46.676Z,9.65
2023-05-08T19:12:14.331Z,9.63
2023-05-08T19:14:41.349Z,9.59
2023-05-08T19:17:08.515Z,9.54
2023-05-08T19:19:35.698Z,9.48
2023-05-08T19:22:02.901Z,9.40
2023-05-08T19:24:35.887Z,9.34
2023-05-08T19:27:04.449Z,9.31
2023-05-08T19:29:33.634Z,9.27
2023-05-08T19:32:02.691Z,9.24
2023-05-08T19:34:32.394Z,9.21
2023-05-08T19:36:59.477Z,9.20
2023-05-08T19:39:26.598Z,9.21
2023-05-08T19:41:53.875Z,9.23
2023-05-08T19:44:21.096Z,9.26
2023-05-08T19:46:48.244Z,9.26
2023-05-08T19:49:17.673Z,9.25
2023-05-08T19:51:44.782Z,9.24
2023-05-08T19:54:11.663Z,9.24
2023-05-08T19:56:38.720Z,9.22
2023-05-08T19:59:06.256Z,9.21
2023-05-08T20:01:33.331Z,9.19
2023-05-08T20:04:01.046Z,9.15
2023-05-08T20:06:29.961Z,9.09
2023-05-08T20:08:57.002Z,9.07
2023-05-08T20:11:24.251Z,9.07
2023-05-08T20:13:51.316Z,9.10
2023-05-08T20:16:18.393Z,9.09
2023-05-08T20:18:46.503Z,9.09
2023-05-08T20:21:13.469Z,9.09
2023-05-08T20:23:41.462Z,9.05
2023-05-08T20:26:09.108Z,9.05
2023-05-08T20:28:36.150Z,9.05
2023-05-08T20:31:03.334Z,9.06
2023-05-08T20:33:30.443Z,9.08
2023-05-08T20:35:58.008Z,9.12
2023-05-08T20:38:24.954Z,9.15
2023-05-08T20:40:53.505Z,9.17
2023-05-08T20:43:21.815Z,9.18
2023-05-08T20:45:49.435Z,9.18
2023-05-08T20:48:16.628Z,9.18
2023-05-08T20:50:43.775Z,9.16
2023-05-08T20:53:10.760Z,9.13
2023-05-08T20:55:37.874Z,9.10
2023-05-08T20:58:05.060Z,9.08
2023-05-08T21:00:32.283Z,9.05
2023-05-08T21:02:59.335Z,9.03
2023-05-08T21:05:26.389Z,8.99
2023-05-08T21:07:58.548Z,8.94
2023-05-08T21:10:27.630Z,8.87
2023-05-08T21:12:56.017Z,8.80
2023-05-08T21:15:23.170Z,8.74
2023-05-08T21:17:50.981Z,8.71
2023-05-08T21:20:18.392Z,8.67
2023-05-08T21:22:46.399Z,8.62
2023-05-08T21:25:15.177Z,8.55
2023-05-08T21:27:42.917Z,8.49
2023-05-08T21:30:15.211Z,8.42
2023-05-08T21:32:43.794Z,8.34
2023-05-08T21:35:11.736Z,8.26
2023-05-08T21:37:39.311Z,8.20
2023-05-08T21:40:07.207Z,8.14
2023-05-08T21:42:34.343Z,8.08
2023-05-08T21:45:01.485Z,8.03
2023-05-08T21:47:28.674Z,7.99
2023-05-08T21:49:55.794Z,7.95
2023-05-08T21:52:22.839Z,7.92
2023-05-08T21:54:50.441Z,7.90
2023-05-08T21:57:17.529Z,7.87
2023-05-08T21:59:44.462Z,7.83
2023-05-08T22:02:11.549Z,7.77
2023-05-08T22:04:38.854Z,7.70
2023-05-08T22:07:05.997Z,7.64
2023-05-08T22:09:33.081Z,7.58
2023-05-08T22:12:00.135Z,7.53
2023-05-08T22:14:27.256Z,7.49
2023-05-08T22:16:54.309Z,7.48
2023-05-08T22:19:21.348Z,7.46
2023-05-08T22:21:48.399Z,7.44
2023-05-08T22:24:15.547Z,7.38
2023-05-08T22:26:42.610Z,7.35
2023-05-08T22:29:09.572Z,7.34
2023-05-08T22:31:36.620Z,7.33
2023-05-08T22:34:03.749Z,7.32
2023-05-08T22:36:30.870Z,7.29
2023-05-08T22:38:58.005Z,7.25
2023-05-08T22:41:25.184Z,7.22
2023-05-08T22:43:52.242Z,7.20
2023-05-08T22:46:19.583Z,7.17
2023-05-08T22:48:47.072Z,7.16
2023-05-08T22:51:14.107Z,7.17
2023-05-08T22:53:41.256Z,7.18
2023-05-08T22:56:08.985Z,7.20
2023-05-08T22:58:36.176Z,7.24
2023-05-08T23:01:03.623Z,7.28
2023-05-08T23:03:30.793Z,7.32
2023-05-08T23:05:57.857Z,7.37
2023-05-08T23:08:24.929Z,7.43
2023-05-08T23:10:51.931Z,7.48
2023-05-08T23:13:19.012Z,7.50
2023-05-08T23:15:46.272Z,7.52
2023-05-08T23:18:13.215Z,7.53
2023-05-08T23:20:40.110Z,7.54
2023-05-08T23:23:07.539Z,7.55
2023-05-08T23:25:34.572Z,7.55
2023-05-08T23:28:01.529Z,7.55
2023-05-08T23:30:28.821Z,7.57
2023-05-08T23:32:55.952Z,7.60
2023-05-08T23:35:23.143Z,7.62
2023-05-08T23:37:50.126Z,7.62
2023-05-08T23:40:17.760Z,7.64
2023-05-08T23:42:44.725Z,7.65
2023-05-08T23:45:12.439Z,7.66
2023-05-08T23:47:39.903Z,7.67
2023-05-08T23:50:07.774Z,7.69
2023-05-08T23:52:34.808Z,7.70
2023-05-08T23:55:01.930Z,7.71
2023-05-08T23:57:28.981Z,7.70
2023-05-08T23:59:55.997Z,7.70
